Terminal Aerodrome Forecast
Issued by NWS Grand Forks, ND

Home | Current Version | Previous Version | Text Only | Print | Product List | Glossary Off
Versions: 1 2 3 4 5 6 7 8 9 10 11 12 13 14 15 16 17

000
FTUS43 KFGF 211900 AAA
TAFGFK
TAF AMD
KGFK 211952Z 2120/2218 07008KT P6SM BKN035
     FM220100 06008KT P6SM TSRA BKN050CB
     FM220700 36011KT P6SM BKN025=

USA.gov is the U.S. government's official web portal to all federal, state and local government web resources and services.